Time;durP1;ratioP1;P1;durP2;ratioP2;P2;SDS_P1;SDS_P2;PMS_P1;PMS_P2;Temp;Humidity;BMP_temperature;BMP_pressure;BME280_temperature;BME280_humidity;BME280_pressure;Samples;Min_cycle;Max_cycle;Signal;HPM_P1;HPM_P2
2022/11/12 00:00:49;;;;;;;;;27.50;27.50;;;;;;;;5101930;27;11634;-82
2022/11/12 00:03:21;;;;;;;;;24.50;23.75;;;;;;;;5124419;27;11602;-82
2022/11/12 00:05:50;;;;;;;;;21.50;21.25;;;;;;;;5122737;27;11561;-82
2022/11/12 00:08:17;;;;;;;;;22.50;20.75;;;;;;;;5103466;27;11529;-81
2022/11/12 00:10:46;;;;;;;;;23.50;20.50;;;;;;;;5126881;27;11444;-81
2022/11/12 00:13:14;;;;;;;;;25.75;25.75;;;;;;;;5123949;27;11589;-82
2022/11/12 00:15:41;;;;;;;;;25.00;23.50;;;;;;;;5104343;27;11544;-82
2022/11/12 00:18:10;;;;;;;;;25.25;23.50;;;;;;;;5121354;27;11538;-81
2022/11/12 00:20:38;;;;;;;;;21.25;20.50;;;;;;;;5125795;27;11608;-81
2022/11/12 00:23:05;;;;;;;;;18.75;17.50;;;;;;;;5127961;27;11580;-82
2022/11/12 00:25:34;;;;;;;;;27.50;25.75;;;;;;;;5125346;27;11468;-81
2022/11/12 00:28:03;;;;;;;;;24.25;24.25;;;;;;;;5125503;27;11732;-81
2022/11/12 00:30:30;;;;;;;;;26.00;24.00;;;;;;;;5124821;27;11469;-82
2022/11/12 00:33:01;;;;;;;;;27.00;21.50;;;;;;;;5124583;27;12253;-81
2022/11/12 00:35:32;;;;;;;;;25.00;19.75;;;;;;;;5101809;27;11541;-82
2022/11/12 00:38:00;;;;;;;;;18.25;18.25;;;;;;;;5102989;27;11565;-81
2022/11/12 00:40:28;;;;;;;;;21.00;21.00;;;;;;;;5102794;27;11408;-82
2022/11/12 00:42:56;;;;;;;;;21.50;21.50;;;;;;;;5122751;27;11576;-82
2022/11/12 00:45:24;;;;;;;;;23.25;21.50;;;;;;;;5106651;27;11448;-82
2022/11/12 00:47:55;;;;;;;;;21.50;21.25;;;;;;;;5122727;27;11590;-82
2022/11/12 00:50:22;;;;;;;;;27.00;24.00;;;;;;;;5123020;27;11419;-81
2022/11/12 00:52:54;;;;;;;;;29.00;21.50;;;;;;;;5105710;27;11506;-81
2022/11/12 00:55:22;;;;;;;;;28.25;27.00;;;;;;;;5122908;27;11550;-82
2022/11/12 00:57:49;;;;;;;;;21.00;21.00;;;;;;;;5123511;27;11562;-81
2022/11/12 01:00:19;;;;;;;;;22.25;22.25;;;;;;;;5103442;27;11529;-81
2022/11/12 01:02:46;;;;;;;;;22.00;19.00;;;;;;;;5123807;27;11450;-81
2022/11/12 01:05:15;;;;;;;;;20.75;20.75;;;;;;;;5100909;27;11525;-82
2022/11/12 01:07:43;;;;;;;;;21.50;17.25;;;;;;;;5124099;27;11569;-83
2022/11/12 01:10:12;;;;;;;;;16.50;16.50;;;;;;;;5128073;27;11444;-82
2022/11/12 01:12:40;;;;;;;;;28.25;20.25;;;;;;;;5100680;27;11511;-82
2022/11/12 01:15:09;;;;;;;;;17.50;15.50;;;;;;;;5127696;27;12328;-82
2022/11/12 01:17:37;;;;;;;;;13.50;12.25;;;;;;;;5120780;27;11500;-81
2022/11/12 01:20:06;;;;;;;;;17.25;17.25;;;;;;;;5102992;27;11545;-82
2022/11/12 01:22:33;;;;;;;;;18.00;16.75;;;;;;;;5124098;27;11409;-82
2022/11/12 01:25:03;;;;;;;;;22.50;20.75;;;;;;;;5128808;27;11564;-82
2022/11/12 01:27:32;;;;;;;;;20.25;17.25;;;;;;;;5125324;27;11566;-80
2022/11/12 01:29:59;;;;;;;;;20.75;19.00;;;;;;;;5127973;27;11536;-81
2022/11/12 01:32:27;;;;;;;;;16.25;16.25;;;;;;;;5108075;27;11678;-82
2022/11/12 01:34:56;;;;;;;;;14.75;14.75;;;;;;;;5127356;27;11456;-82
2022/11/12 01:37:23;;;;;;;;;17.50;17.25;;;;;;;;5125892;27;11479;-83
2022/11/12 01:39:51;;;;;;;;;19.25;19.25;;;;;;;;5128045;27;11421;-83
2022/11/12 01:42:19;;;;;;;;;23.50;20.25;;;;;;;;5110001;27;11503;-82
2022/11/12 01:44:48;;;;;;;;;20.75;20.75;;;;;;;;5126256;27;11529;-81
2022/11/12 01:47:21;;;;;;;;;21.50;21.00;;;;;;;;5105409;27;11522;-82
2022/11/12 01:49:55;;;;;;;;;22.25;19.25;;;;;;;;5131476;27;12367;-82
2022/11/12 01:52:26;;;;;;;;;22.75;22.75;;;;;;;;5127898;27;12417;-81
2022/11/12 01:54:55;;;;;;;;;26.50;26.50;;;;;;;;5105004;27;11596;-82
2022/11/12 01:57:27;;;;;;;;;27.00;22.75;;;;;;;;5110006;27;11660;-82
2022/11/12 02:00:01;;;;;;;;;23.75;23.00;;;;;;;;5126438;27;11584;-82
2022/11/12 02:02:29;;;;;;;;;30.75;23.50;;;;;;;;5129728;27;11586;-80
2022/11/12 02:04:57;;;;;;;;;20.25;20.25;;;;;;;;5092091;27;11773;-82
2022/11/12 02:07:26;;;;;;;;;28.75;28.00;;;;;;;;5123833;27;11693;-82
2022/11/12 02:09:54;;;;;;;;;31.50;26.75;;;;;;;;5105350;27;11549;-81
2022/11/12 02:15:11;;;;;;;;;18.75;18.75;;;;;;;;5103476;27;11505;-81
2022/11/12 02:17:39;;;;;;;;;30.75;24.75;;;;;;;;5099725;27;11507;-81
2022/11/12 02:20:10;;;;;;;;;17.75;15.75;;;;;;;;5099423;27;11544;-81
2022/11/12 02:22:39;;;;;;;;;23.75;23.75;;;;;;;;5118636;27;11447;-80
2022/11/12 02:25:08;;;;;;;;;22.75;18.75;;;;;;;;5119397;27;11470;-81
2022/11/12 02:27:36;;;;;;;;;23.50;22.00;;;;;;;;5114192;27;11584;-80
2022/11/12 02:30:04;;;;;;;;;15.50;15.50;;;;;;;;5083242;27;11456;-81
2022/11/12 02:32:35;;;;;;;;;19.50;19.50;;;;;;;;5117225;27;11462;-80
2022/11/12 02:35:03;;;;;;;;;23.25;23.25;;;;;;;;5117360;27;11419;-81
2022/11/12 02:37:30;;;;;;;;;26.75;19.75;;;;;;;;5099274;27;12111;-81
2022/11/12 02:39:59;;;;;;;;;17.50;15.50;;;;;;;;5119725;27;11479;-81
2022/11/12 02:42:27;;;;;;;;;25.50;19.25;;;;;;;;5118926;27;11444;-80
2022/11/12 02:44:55;;;;;;;;;22.75;21.75;;;;;;;;5116000;27;11451;-81
2022/11/12 02:47:22;;;;;;;;;19.75;19.75;;;;;;;;5117290;27;11374;-80
2022/11/12 02:49:50;;;;;;;;;20.75;17.25;;;;;;;;5117765;27;11449;-80
2022/11/12 02:52:17;;;;;;;;;25.00;22.75;;;;;;;;5123135;27;11375;-81
2022/11/12 02:54:45;;;;;;;;;24.00;19.50;;;;;;;;5078707;27;11495;-80
2022/11/12 02:57:15;;;;;;;;;18.75;18.75;;;;;;;;5116824;27;11466;-81
2022/11/12 02:59:42;;;;;;;;;18.75;18.50;;;;;;;;5085791;27;11485;-81
2022/11/12 03:02:10;;;;;;;;;16.50;16.50;;;;;;;;5121801;27;11464;-80
2022/11/12 03:04:37;;;;;;;;;20.25;20.25;;;;;;;;5097278;27;11498;-81
2022/11/12 03:07:05;;;;;;;;;23.50;18.75;;;;;;;;5099060;27;11458;-81
2022/11/12 03:09:33;;;;;;;;;16.75;13.50;;;;;;;;5086082;27;11371;-80
2022/11/12 03:12:00;;;;;;;;;15.50;14.50;;;;;;;;5114470;27;11399;-80
2022/11/12 03:14:29;;;;;;;;;20.00;18.25;;;;;;;;5115135;27;11485;-80
2022/11/12 03:16:57;;;;;;;;;18.00;16.00;;;;;;;;5099540;27;12141;-80
2022/11/12 03:19:25;;;;;;;;;16.00;13.75;;;;;;;;5117273;27;11580;-81
2022/11/12 03:21:52;;;;;;;;;21.00;20.50;;;;;;;;5099703;27;11458;-81
2022/11/12 03:24:20;;;;;;;;;14.50;13.75;;;;;;;;5115123;27;11478;-79
2022/11/12 03:26:47;;;;;;;;;14.00;14.00;;;;;;;;5098923;27;11426;-81
2022/11/12 03:29:15;;;;;;;;;22.50;21.00;;;;;;;;5118220;27;12277;-81
2022/11/12 03:31:44;;;;;;;;;18.75;18.00;;;;;;;;5115361;27;11436;-80
2022/11/12 03:34:12;;;;;;;;;25.25;21.25;;;;;;;;5114480;27;11478;-82
2022/11/12 03:36:40;;;;;;;;;17.00;17.00;;;;;;;;5118305;27;11502;-80
2022/11/12 03:39:08;;;;;;;;;17.00;16.50;;;;;;;;5116834;27;11462;-81
2022/11/12 03:41:35;;;;;;;;;21.25;20.50;;;;;;;;5116231;27;11490;-80
2022/11/12 03:44:03;;;;;;;;;17.75;14.50;;;;;;;;5116966;27;12175;-81
2022/11/12 03:46:37;;;;;;;;;18.25;18.25;;;;;;;;5120152;27;11415;-80
2022/11/12 03:49:05;;;;;;;;;25.00;16.50;;;;;;;;5118550;27;11477;-82
2022/11/12 03:51:33;;;;;;;;;17.00;17.00;;;;;;;;5121589;27;11458;-80
2022/11/12 03:54:01;;;;;;;;;20.75;17.00;;;;;;;;5107549;27;11685;-81
2022/11/12 03:56:28;;;;;;;;;20.25;20.25;;;;;;;;5105288;27;11521;-81
2022/11/12 03:58:56;;;;;;;;;18.25;17.25;;;;;;;;5124018;27;11386;-81
2022/11/12 04:01:24;;;;;;;;;20.25;20.25;;;;;;;;5105249;27;12203;-81
2022/11/12 04:03:51;;;;;;;;;19.50;19.50;;;;;;;;5127501;27;11539;-81
2022/11/12 04:09:02;;;;;;;;;21.00;19.00;;;;;;;;5044573;28;11497;-82
2022/11/12 04:11:29;;;;;;;;;21.25;19.00;;;;;;;;5086151;28;11568;-80
2022/11/12 04:13:57;;;;;;;;;18.25;15.75;;;;;;;;5065252;28;11474;-81
2022/11/12 04:22:02;;;;;;;;;22.25;16.50;;;;;;;;5084854;28;11478;-82
2022/11/12 04:27:19;;;;;;;;;16.50;14.50;;;;;;;;5082915;28;11588;-82
2022/11/12 04:32:35;;;;;;;;;17.00;14.25;;;;;;;;5084549;28;11463;-82
2022/11/12 04:35:03;;;;;;;;;19.00;14.50;;;;;;;;5084989;28;11499;-82
2022/11/12 04:37:43;;;;;;;;;20.50;17.75;;;;;;;;5084438;28;11447;-81
2022/11/12 04:45:39;;;;;;;;;13.25;13.25;;;;;;;;5083033;28;11463;-82
2022/11/12 04:48:07;;;;;;;;;19.50;16.75;;;;;;;;5078532;28;11460;-81
2022/11/12 04:50:36;;;;;;;;;18.50;15.75;;;;;;;;5080174;28;11479;-83
2022/11/12 04:53:05;;;;;;;;;21.75;19.25;;;;;;;;5081118;28;12259;-82
2022/11/12 04:55:33;;;;;;;;;24.00;18.25;;;;;;;;5076665;28;11478;-82
2022/11/12 04:58:01;;;;;;;;;18.00;17.50;;;;;;;;5071414;28;11559;-81
2022/11/12 05:00:29;;;;;;;;;16.25;16.25;;;;;;;;5078481;28;11494;-81
2022/11/12 05:02:56;;;;;;;;;13.50;13.50;;;;;;;;5083156;28;11717;-81
2022/11/12 05:05:24;;;;;;;;;18.75;15.75;;;;;;;;5085831;27;11591;-81
2022/11/12 05:07:53;;;;;;;;;18.00;15.75;;;;;;;;5124418;27;12213;-81
2022/11/12 05:10:22;;;;;;;;;14.00;14.00;;;;;;;;5089405;27;12246;-81
2022/11/12 05:12:52;;;;;;;;;8.25;8.25;;;;;;;;5107090;27;11430;-80
2022/11/12 05:15:19;;;;;;;;;12.75;12.00;;;;;;;;5120426;27;11479;-81
2022/11/12 05:17:47;;;;;;;;;13.75;9.75;;;;;;;;5103621;27;11471;-81
2022/11/12 05:20:15;;;;;;;;;13.50;9.25;;;;;;;;5104886;27;11598;-82
2022/11/12 05:22:43;;;;;;;;;18.00;17.75;;;;;;;;5122679;27;11405;-81
2022/11/12 05:25:10;;;;;;;;;12.50;9.75;;;;;;;;5103679;27;11394;-81
2022/11/12 05:27:39;;;;;;;;;18.25;13.50;;;;;;;;5104833;27;11434;-81
2022/11/12 05:30:08;;;;;;;;;15.25;12.50;;;;;;;;5102531;27;11518;-82
2022/11/12 05:32:36;;;;;;;;;13.50;11.00;;;;;;;;5123454;27;11458;-81
2022/11/12 05:35:04;;;;;;;;;15.25;13.25;;;;;;;;5101921;27;11413;-80
2022/11/12 05:37:31;;;;;;;;;15.25;15.25;;;;;;;;5102305;27;11442;-80
2022/11/12 05:39:58;;;;;;;;;18.75;14.00;;;;;;;;5125667;27;12235;-82
2022/11/12 05:42:26;;;;;;;;;14.00;12.50;;;;;;;;5124434;27;11469;-81
2022/11/12 05:44:55;;;;;;;;;12.50;10.00;;;;;;;;5121273;27;11462;-82
2022/11/12 05:47:23;;;;;;;;;12.25;12.25;;;;;;;;5124988;27;11102;-82
2022/11/12 05:49:51;;;;;;;;;13.00;12.00;;;;;;;;5090563;27;11485;-81
2022/11/12 05:52:18;;;;;;;;;14.50;9.50;;;;;;;;5120285;27;11522;-82
2022/11/12 05:54:46;;;;;;;;;12.25;10.75;;;;;;;;5122021;27;11358;-81
2022/11/12 05:57:14;;;;;;;;;9.25;9.25;;;;;;;;5105540;27;11542;-81
2022/11/12 05:59:41;;;;;;;;;12.00;12.00;;;;;;;;5124946;27;11480;-81
2022/11/12 06:02:10;;;;;;;;;18.75;14.25;;;;;;;;5122024;27;11394;-81
2022/11/12 06:04:38;;;;;;;;;12.00;11.75;;;;;;;;5104729;27;11168;-80
2022/11/12 06:07:06;;;;;;;;;17.50;15.50;;;;;;;;5098172;27;11470;-82
2022/11/12 06:09:34;;;;;;;;;9.00;9.00;;;;;;;;5119917;27;11432;-80
2022/11/12 06:12:05;;;;;;;;;11.75;9.50;;;;;;;;5124895;27;11478;-81
2022/11/12 06:14:36;;;;;;;;;14.00;9.75;;;;;;;;5126944;27;12242;-80
2022/11/12 06:17:05;;;;;;;;;13.50;12.25;;;;;;;;5102956;27;11104;-80
2022/11/12 06:19:34;;;;;;;;;15.00;12.75;;;;;;;;5107839;27;11538;-79
2022/11/12 06:22:01;;;;;;;;;10.75;9.50;;;;;;;;5128961;27;11166;-80
2022/11/12 06:24:29;;;;;;;;;6.25;6.25;;;;;;;;5122234;27;11234;-79
2022/11/12 06:26:57;;;;;;;;;14.00;12.50;;;;;;;;5126493;27;10997;-81
2022/11/12 06:29:25;;;;;;;;;23.75;22.50;;;;;;;;5126907;27;11124;-81
2022/11/12 06:31:52;;;;;;;;;27.50;26.00;;;;;;;;5105247;27;11413;-82
2022/11/12 06:34:20;;;;;;;;;24.25;21.50;;;;;;;;5125186;27;11485;-81
2022/11/12 06:36:49;;;;;;;;;7.75;7.75;;;;;;;;5108678;27;11460;-84
2022/11/12 06:39:18;;;;;;;;;19.50;16.75;;;;;;;;5127291;27;11470;-81
2022/11/12 06:41:46;;;;;;;;;20.00;18.50;;;;;;;;5105813;27;11415;-82
2022/11/12 06:44:13;;;;;;;;;14.00;10.75;;;;;;;;5104752;27;11595;-82
2022/11/12 06:46:41;;;;;;;;;12.50;8.75;;;;;;;;5108791;27;11421;-82
2022/11/12 06:49:09;;;;;;;;;14.25;14.25;;;;;;;;5125147;27;11468;-81
2022/11/12 06:51:38;;;;;;;;;19.00;14.00;;;;;;;;5125002;27;11460;-81
2022/11/12 06:54:08;;;;;;;;;15.75;13.75;;;;;;;;5124651;27;11439;-81
2022/11/12 06:56:35;;;;;;;;;16.75;16.25;;;;;;;;5126531;27;11527;-82
2022/11/12 06:59:04;;;;;;;;;16.00;14.00;;;;;;;;5125176;27;11448;-84
2022/11/12 07:01:34;;;;;;;;;14.00;9.50;;;;;;;;5124593;27;11469;-84
2022/11/12 07:07:00;;;;;;;;;13.50;13.50;;;;;;;;5120450;27;11549;-82
2022/11/12 07:09:29;;;;;;;;;16.00;15.00;;;;;;;;5122993;27;11365;-81
2022/11/12 07:11:57;;;;;;;;;5.50;5.50;;;;;;;;5105558;27;11474;-81
2022/11/12 07:14:26;;;;;;;;;15.75;12.50;;;;;;;;5102120;27;11341;-82
2022/11/12 07:16:53;;;;;;;;;10.00;10.00;;;;;;;;5123812;27;11562;-81
2022/11/12 07:19:20;;;;;;;;;12.75;12.75;;;;;;;;5121182;27;11497;-81
2022/11/12 07:21:48;;;;;;;;;13.75;13.75;;;;;;;;5121906;27;11447;-81
2022/11/12 07:24:16;;;;;;;;;18.00;11.75;;;;;;;;5122565;27;11938;-81
2022/11/12 07:26:46;;;;;;;;;11.25;10.25;;;;;;;;5106644;27;11097;-81
2022/11/12 07:29:13;;;;;;;;;20.75;14.00;;;;;;;;5088306;27;11501;-81
2022/11/12 07:31:41;;;;;;;;;14.75;13.00;;;;;;;;5122892;27;11482;-81
2022/11/12 07:34:09;;;;;;;;;16.50;10.50;;;;;;;;5122658;27;11407;-81
2022/11/12 07:36:37;;;;;;;;;12.50;9.00;;;;;;;;5123392;27;11517;-81
2022/11/12 07:39:05;;;;;;;;;15.25;14.25;;;;;;;;5124506;27;11208;-80
2022/11/12 07:41:32;;;;;;;;;18.25;12.00;;;;;;;;5120216;27;11155;-81
2022/11/12 07:44:01;;;;;;;;;15.00;13.75;;;;;;;;5104318;27;11442;-81
2022/11/12 07:46:29;;;;;;;;;10.00;10.00;;;;;;;;5123778;27;11467;-81
2022/11/12 07:48:57;;;;;;;;;15.25;12.75;;;;;;;;5102659;27;11408;-82
2022/11/12 07:51:26;;;;;;;;;9.75;8.25;;;;;;;;5106936;27;11231;-81
2022/11/12 07:53:55;;;;;;;;;15.50;14.25;;;;;;;;5102551;27;11219;-81
2022/11/12 07:56:25;;;;;;;;;8.50;8.50;;;;;;;;5123796;27;12002;-82
2022/11/12 07:58:53;;;;;;;;;14.75;13.25;;;;;;;;5118514;27;10919;-81
2022/11/12 08:01:24;;;;;;;;;10.75;10.75;;;;;;;;5121422;27;11291;-81
2022/11/12 08:03:52;;;;;;;;;12.75;8.75;;;;;;;;5122104;27;11169;-81
2022/11/12 08:06:25;;;;;;;;;7.75;6.50;;;;;;;;5122514;27;11017;-81
2022/11/12 08:08:53;;;;;;;;;14.50;12.00;;;;;;;;5119368;27;10921;-81
2022/11/12 08:11:24;;;;;;;;;18.00;15.25;;;;;;;;5113992;27;11093;-82
2022/11/12 08:14:01;;;;;;;;;21.25;15.25;;;;;;;;5117466;27;11308;-80
2022/11/12 08:16:33;;;;;;;;;19.50;15.75;;;;;;;;5119100;27;11132;-81
2022/11/12 08:19:01;;;;;;;;;20.00;20.00;;;;;;;;5123756;27;11243;-81
2022/11/12 08:21:29;;;;;;;;;20.50;18.50;;;;;;;;5127048;27;13231;-81
2022/11/12 08:23:57;;;;;;;;;26.00;20.50;;;;;;;;5114386;27;11943;-81
2022/11/12 08:26:28;;;;;;;;;17.25;11.75;;;;;;;;5114526;27;11583;-80
2022/11/12 08:28:55;;;;;;;;;9.75;9.75;;;;;;;;5115453;27;11067;-82
2022/11/12 08:31:23;;;;;;;;;10.00;10.00;;;;;;;;5125909;27;10889;-81
2022/11/12 08:33:52;;;;;;;;;15.25;14.50;;;;;;;;5118091;27;10899;-81
2022/11/12 08:36:20;;;;;;;;;18.50;13.50;;;;;;;;5102519;27;11132;-81
2022/11/12 08:38:47;;;;;;;;;13.25;13.25;;;;;;;;5098760;27;10912;-82
2022/11/12 08:41:16;;;;;;;;;14.00;13.75;;;;;;;;5114757;27;11038;-80
2022/11/12 08:43:44;;;;;;;;;14.00;10.25;;;;;;;;5114124;27;10935;-80
2022/11/12 08:46:13;;;;;;;;;11.25;10.00;;;;;;;;5098400;27;10906;-81
2022/11/12 08:48:43;;;;;;;;;19.75;16.75;;;;;;;;5116454;27;10872;-81
2022/11/12 08:51:12;;;;;;;;;15.25;15.25;;;;;;;;5110998;27;11047;-80
2022/11/12 08:53:40;;;;;;;;;9.50;9.50;;;;;;;;5122481;27;10812;-80
2022/11/12 08:56:08;;;;;;;;;12.00;10.00;;;;;;;;5120407;27;10698;-78
2022/11/12 08:58:40;;;;;;;;;19.50;16.25;;;;;;;;5113652;27;10700;-80
2022/11/12 09:01:11;;;;;;;;;12.25;10.00;;;;;;;;5100279;27;10919;-78
2022/11/12 09:03:39;;;;;;;;;19.50;16.75;;;;;;;;5123860;27;10772;-75
2022/11/12 09:06:07;;;;;;;;;12.50;11.00;;;;;;;;5117532;27;10984;-78
2022/11/12 09:08:38;;;;;;;;;10.75;9.25;;;;;;;;5120733;27;10767;-78
2022/11/12 09:11:09;;;;;;;;;12.00;10.50;;;;;;;;5116149;27;10634;-78
2022/11/12 09:13:40;;;;;;;;;16.50;14.50;;;;;;;;5094658;27;11449;-78
2022/11/12 09:16:09;;;;;;;;;19.75;19.75;;;;;;;;5095292;27;10652;-77
2022/11/12 09:18:37;;;;;;;;;13.50;13.50;;;;;;;;5119923;27;10901;-77
2022/11/12 09:21:07;;;;;;;;;22.75;15.75;;;;;;;;5120990;27;11270;-77
2022/11/12 09:23:37;;;;;;;;;11.00;11.00;;;;;;;;5122475;27;10681;-76
2022/11/12 09:26:05;;;;;;;;;12.50;11.75;;;;;;;;5121350;27;10785;-74
2022/11/12 09:28:37;;;;;;;;;14.75;13.75;;;;;;;;5124798;27;10644;-74
2022/11/12 09:31:06;;;;;;;;;17.75;16.00;;;;;;;;5123444;27;10738;-74
2022/11/12 09:33:36;;;;;;;;;26.25;16.75;;;;;;;;5117017;27;10980;-74
2022/11/12 09:36:05;;;;;;;;;15.75;15.50;;;;;;;;5121072;27;11149;-74
2022/11/12 09:38:34;;;;;;;;;26.50;24.00;;;;;;;;5113929;27;10921;-75
2022/11/12 09:41:28;;;;;;;;;17.00;15.25;;;;;;;;5116205;27;11017;-74
2022/11/12 09:43:58;;;;;;;;;10.50;10.00;;;;;;;;5094021;27;10644;-74
2022/11/12 09:46:32;;;;;;;;;14.50;12.25;;;;;;;;5081961;27;10597;-75
2022/11/12 09:49:05;;;;;;;;;15.75;14.75;;;;;;;;5098625;27;10612;-74
2022/11/12 09:51:36;;;;;;;;;14.75;12.00;;;;;;;;5130687;27;10810;-75
2022/11/12 09:54:06;;;;;;;;;23.25;19.25;;;;;;;;5112793;27;10706;-74
2022/11/12 09:56:35;;;;;;;;;12.25;9.50;;;;;;;;5097487;27;10872;-73
2022/11/12 09:59:15;;;;;;;;;17.75;17.75;;;;;;;;5124161;27;10509;-74
2022/11/12 10:01:57;;;;;;;;;13.75;13.75;;;;;;;;5120359;27;10636;-76
2022/11/12 10:04:56;;;;;;;;;13.00;13.00;;;;;;;;5125424;27;10730;-76
2022/11/12 10:07:33;;;;;;;;;14.75;13.25;;;;;;;;5105216;27;10478;-74
2022/11/12 10:10:04;;;;;;;;;17.25;10.50;;;;;;;;5126362;27;10454;-74
2022/11/12 10:12:45;;;;;;;;;15.50;15.00;;;;;;;;5124798;27;10610;-76
2022/11/12 10:18:29;;;;;;;;;12.50;11.25;;;;;;;;5124988;27;10266;-75
2022/11/12 10:21:03;;;;;;;;;11.75;11.75;;;;;;;;5123092;27;10315;-76
2022/11/12 10:23:37;;;;;;;;;17.50;15.50;;;;;;;;5126859;27;10379;-75
2022/11/12 10:26:11;;;;;;;;;16.75;14.75;;;;;;;;5125306;27;10494;-74
2022/11/12 10:28:44;;;;;;;;;13.50;12.00;;;;;;;;5127103;27;10300;-74
2022/11/12 10:31:13;;;;;;;;;17.25;14.00;;;;;;;;5131408;27;10214;-74
2022/11/12 10:33:40;;;;;;;;;18.25;16.00;;;;;;;;5125152;27;10288;-75
2022/11/12 10:36:28;;;;;;;;;15.75;13.50;;;;;;;;5130294;27;10292;-75
2022/11/12 10:38:57;;;;;;;;;11.00;9.25;;;;;;;;5124445;27;10256;-75
2022/11/12 10:41:26;;;;;;;;;13.25;13.25;;;;;;;;5124261;27;10135;-77
2022/11/12 10:43:57;;;;;;;;;25.25;23.00;;;;;;;;5124705;27;10339;-74
2022/11/12 10:46:27;;;;;;;;;12.75;12.75;;;;;;;;5125035;27;10374;-74
2022/11/12 10:49:00;;;;;;;;;17.25;17.25;;;;;;;;5125731;27;9975;-74
2022/11/12 10:51:30;;;;;;;;;20.00;20.00;;;;;;;;5125187;27;9981;-74
2022/11/12 10:53:58;;;;;;;;;17.25;15.50;;;;;;;;5128475;27;10243;-74
2022/11/12 10:56:28;;;;;;;;;18.00;16.00;;;;;;;;5128857;27;10008;-74
2022/11/12 10:59:16;;;;;;;;;13.75;13.75;;;;;;;;5128551;27;9892;-75
2022/11/12 11:01:44;;;;;;;;;11.25;11.25;;;;;;;;5128235;27;9856;-73
2022/11/12 11:04:28;;;;;;;;;12.50;12.50;;;;;;;;5106711;27;9834;-74
2022/11/12 11:07:01;;;;;;;;;11.25;11.25;;;;;;;;5122878;27;9983;-75
2022/11/12 11:09:28;;;;;;;;;15.00;13.25;;;;;;;;5130547;27;9629;-77
2022/11/12 11:11:56;;;;;;;;;19.25;18.00;;;;;;;;5108430;27;9836;-75
2022/11/12 11:14:32;;;;;;;;;18.25;12.75;;;;;;;;5122000;27;9962;-76
2022/11/12 11:17:03;;;;;;;;;8.25;8.25;;;;;;;;5121317;27;9701;-75
2022/11/12 11:19:36;;;;;;;;;14.75;13.75;;;;;;;;5125853;27;9583;-74
2022/11/12 11:22:29;;;;;;;;;10.00;10.00;;;;;;;;5128957;27;9591;-78
2022/11/12 11:25:18;;;;;;;;;9.00;9.00;;;;;;;;5120431;27;9395;-78
2022/11/12 11:27:55;;;;;;;;;13.33;13.33;;;;;;;;5123654;27;9381;-77
2022/11/12 11:30:25;;;;;;;;;14.33;14.33;;;;;;;;5123002;27;9615;-75
2022/11/12 11:33:06;;;;;;;;;12.00;12.00;;;;;;;;5125507;27;9286;-75
2022/11/12 11:35:52;;;;;;;;;9.00;9.00;;;;;;;;5125889;27;9269;-73
2022/11/12 11:38:37;;;;;;;;;9.67;9.67;;;;;;;;5124053;27;9775;-76
2022/11/12 11:41:16;;;;;;;;;11.67;11.67;;;;;;;;5101936;27;9072;-73
2022/11/12 11:43:57;;;;;;;;;10.00;10.00;;;;;;;;5124021;27;9256;-72
2022/11/12 11:46:43;;;;;;;;;11.33;11.00;;;;;;;;5124539;27;9203;-73
2022/11/12 11:49:59;;;;;;;;;11.50;11.50;;;;;;;;5123124;27;9069;-70
2022/11/12 11:52:48;;;;;;;;;11.00;11.00;;;;;;;;5107077;27;8846;-73
2022/11/12 11:55:30;;;;;;;;;13.00;13.00;;;;;;;;5125200;27;9013;-72
2022/11/12 11:58:06;;;;;;;;;13.25;13.25;;;;;;;;5125206;27;8820;-72
2022/11/12 12:00:43;;;;;;;;;14.75;13.25;;;;;;;;5104508;27;8868;-77
2022/11/12 12:03:23;;;;;;;;;13.00;13.00;;;;;;;;5126056;27;8812;-76
2022/11/12 12:06:07;;;;;;;;;16.00;13.00;;;;;;;;5125250;27;9585;-76
2022/11/12 12:08:43;;;;;;;;;10.00;10.00;;;;;;;;5122995;27;8860;-75
2022/11/12 12:11:15;;;;;;;;;10.25;10.25;;;;;;;;5125381;27;8832;-76
2022/11/12 12:13:54;;;;;;;;;10.75;10.00;;;;;;;;5127415;27;8812;-76
2022/11/12 12:16:28;;;;;;;;;8.25;8.25;;;;;;;;5124364;27;8815;-76
2022/11/12 12:19:05;;;;;;;;;7.00;7.00;;;;;;;;5128294;27;8836;-76
2022/11/12 12:21:35;;;;;;;;;12.00;9.75;;;;;;;;5123372;27;8832;-78
2022/11/12 12:24:05;;;;;;;;;7.50;7.50;;;;;;;;5126141;27;8863;-78
2022/11/12 12:26:40;;;;;;;;;9.00;7.50;;;;;;;;5104361;27;8935;-78
2022/11/12 12:29:19;;;;;;;;;7.75;7.75;;;;;;;;5120169;27;8847;-79
2022/11/12 12:31:51;;;;;;;;;11.00;9.33;;;;;;;;5119165;27;8836;-76
2022/11/12 12:34:27;;;;;;;;;9.75;8.00;;;;;;;;5122095;27;8870;-77
2022/11/12 12:37:01;;;;;;;;;8.00;8.00;;;;;;;;5119392;27;8874;-77
2022/11/12 12:39:38;;;;;;;;;6.00;6.00;;;;;;;;5114186;27;9013;-76
2022/11/12 12:42:14;;;;;;;;;7.75;7.75;;;;;;;;5119319;27;8917;-72
2022/11/12 12:45:03;;;;;;;;;7.25;7.25;;;;;;;;5101816;27;8884;-77
2022/11/12 12:47:35;;;;;;;;;7.00;7.00;;;;;;;;5114395;27;8845;-78
2022/11/12 12:50:08;;;;;;;;;8.00;6.25;;;;;;;;5114352;27;8844;-76
2022/11/12 12:53:04;;;;;;;;;5.50;5.50;;;;;;;;5114092;27;8844;-76
2022/11/12 12:55:39;;;;;;;;;7.00;5.25;;;;;;;;5113389;27;8818;-78
2022/11/12 12:58:18;;;;;;;;;7.40;6.00;;;;;;;;5115211;27;8832;-76
2022/11/12 13:00:51;;;;;;;;;7.20;7.20;;;;;;;;5116904;27;8898;-74
2022/11/12 13:03:49;;;;;;;;;5.60;5.60;;;;;;;;5121017;27;8824;-73
2022/11/12 13:06:29;;;;;;;;;8.00;8.00;;;;;;;;5113225;27;8876;-74
2022/11/12 13:09:03;;;;;;;;;5.00;5.00;;;;;;;;5113222;27;9651;-77
2022/11/12 13:14:53;;;;;;;;;8.00;7.00;;;;;;;;5119225;27;8816;-75
2022/11/12 13:17:48;;;;;;;;;7.40;7.40;;;;;;;;5115791;27;8967;-76
2022/11/12 13:20:38;;;;;;;;;6.80;6.60;;;;;;;;5119726;27;8968;-78
2022/11/12 13:26:54;;;;;;;;;11.20;10.00;;;;;;;;5120032;27;8822;-78
2022/11/12 13:29:42;;;;;;;;;12.00;10.00;;;;;;;;5128965;27;9615;-78
2022/11/12 13:32:34;;;;;;;;;12.80;11.00;;;;;;;;5129002;27;8848;-76
2022/11/12 13:35:24;;;;;;;;;10.20;10.20;;;;;;;;5129177;27;8824;-78
2022/11/12 13:37:54;;;;;;;;;9.00;9.00;;;;;;;;5129015;27;8867;-74
2022/11/12 13:40:27;;;;;;;;;11.60;10.60;;;;;;;;5122279;27;8846;-73
2022/11/12 13:42:56;;;;;;;;;8.80;8.80;;;;;;;;5116868;27;8837;-74
2022/11/12 13:45:27;;;;;;;;;8.20;8.20;;;;;;;;5119901;27;8846;-74
2022/11/12 13:47:54;;;;;;;;;12.20;10.40;;;;;;;;5132339;27;8854;-72
2022/11/12 13:50:23;;;;;;;;;10.60;10.60;;;;;;;;5120628;27;8826;-73
2022/11/12 13:52:52;;;;;;;;;12.60;10.80;;;;;;;;5098952;27;8814;-74
2022/11/12 13:55:21;;;;;;;;;12.20;10.20;;;;;;;;5116446;27;8886;-74
2022/11/12 13:57:52;;;;;;;;;11.60;11.60;;;;;;;;5126404;27;9476;-74
2022/11/12 14:00:37;;;;;;;;;9.60;9.60;;;;;;;;5132744;27;8882;-73
2022/11/12 14:03:07;;;;;;;;;14.60;14.60;;;;;;;;5119322;27;8874;-73
2022/11/12 14:05:37;;;;;;;;;14.00;14.00;;;;;;;;5101571;27;8980;-73
2022/11/12 14:08:21;;;;;;;;;12.00;11.80;;;;;;;;5122462;27;8852;-73
2022/11/12 14:11:09;;;;;;;;;12.00;12.00;;;;;;;;5104385;27;9611;-73
2022/11/12 14:13:54;;;;;;;;;15.80;13.40;;;;;;;;5115356;27;8897;-73
2022/11/12 14:16:32;;;;;;;;;13.80;12.20;;;;;;;;5121603;27;8861;-73
2022/11/12 14:19:17;;;;;;;;;10.40;10.40;;;;;;;;5094023;27;8828;-73
2022/11/12 14:21:59;;;;;;;;;13.20;11.80;;;;;;;;5118111;27;9582;-73
2022/11/12 14:24:27;;;;;;;;;10.00;10.00;;;;;;;;5099764;27;8974;-74
2022/11/12 14:26:54;;;;;;;;;9.60;9.00;;;;;;;;5119647;27;8956;-74
2022/11/12 14:29:22;;;;;;;;;10.80;10.80;;;;;;;;5118198;27;8839;-74
2022/11/12 14:32:00;;;;;;;;;13.00;13.00;;;;;;;;5121389;27;8935;-74
2022/11/12 14:34:30;;;;;;;;;13.40;12.40;;;;;;;;5123318;27;8839;-74
2022/11/12 14:36:57;;;;;;;;;13.60;13.60;;;;;;;;5127097;27;8901;-73
2022/11/12 14:39:27;;;;;;;;;8.80;8.80;;;;;;;;5120377;27;8881;-74
2022/11/12 14:41:56;;;;;;;;;8.60;6.00;;;;;;;;5116337;27;8859;-74
2022/11/12 14:44:27;;;;;;;;;12.80;12.00;;;;;;;;5116632;27;8952;-74
2022/11/12 14:46:58;;;;;;;;;10.80;10.00;;;;;;;;5123584;27;8835;-73
2022/11/12 14:49:34;;;;;;;;;8.20;8.20;;;;;;;;5117822;27;8883;-74
2022/11/12 14:52:06;;;;;;;;;11.60;8.00;;;;;;;;5117669;27;8820;-73
2022/11/12 14:54:36;;;;;;;;;8.60;8.60;;;;;;;;5114888;27;8855;-73
2022/11/12 14:57:05;;;;;;;;;10.80;9.00;;;;;;;;5096190;27;8830;-73
2022/11/12 14:59:34;;;;;;;;;13.80;12.00;;;;;;;;5115456;27;8963;-73
2022/11/12 15:02:09;;;;;;;;;11.00;10.20;;;;;;;;5115905;27;8839;-73
2022/11/12 15:04:39;;;;;;;;;11.50;10.00;;;;;;;;5113092;27;8832;-73
2022/11/12 15:07:21;;;;;;;;;8.60;8.60;;;;;;;;5114642;27;8838;-74
2022/11/12 15:09:49;;;;;;;;;8.75;8.75;;;;;;;;5116011;27;8860;-73
2022/11/12 15:12:22;;;;;;;;;10.50;10.50;;;;;;;;5116287;27;8917;-73
2022/11/12 15:14:50;;;;;;;;;11.00;11.00;;;;;;;;5116114;27;8838;-73
2022/11/12 15:17:31;;;;;;;;;10.00;10.00;;;;;;;;5115917;27;8846;-73
2022/11/12 15:20:03;;;;;;;;;12.25;10.50;;;;;;;;5115235;27;8831;-73
2022/11/12 15:22:31;;;;;;;;;11.00;11.00;;;;;;;;5116918;27;8839;-71
2022/11/12 15:25:11;;;;;;;;;10.50;10.50;;;;;;;;5107584;27;8816;-74